sensor_id;sensor_type;location;lat;lon;timestamp;pressure;altitude;pressure_sealevel;temperature;humidity
63194;BME280;49289;51.670;5.624;2023-09-12T00:00:19;101401.98;;;28.25;74.17
63194;BME280;49289;51.670;5.624;2023-09-12T00:02:06;101381.17;;;28.22;74.11
63194;BME280;49289;51.670;5.624;2023-09-12T00:03:53;101381.63;;;28.21;74.13
63194;BME280;49289;51.670;5.624;2023-09-12T00:05:41;101406.29;;;28.33;74.01
63194;BME280;49289;51.670;5.624;2023-09-12T00:07:30;101412.55;;;28.39;73.78
63194;BME280;49289;51.670;5.624;2023-09-12T00:09:18;101425.56;;;28.43;73.80
63194;BME280;49289;51.670;5.624;2023-09-12T00:11:15;101410.34;;;28.33;73.58
63194;BME280;49289;51.670;5.624;2023-09-12T00:13:03;101437.30;;;28.39;74.04
63194;BME280;49289;51.670;5.624;2023-09-12T00:14:50;101432.14;;;28.42;73.64
63194;BME280;49289;51.670;5.624;2023-09-12T00:16:37;101416.26;;;28.29;73.93
63194;BME280;49289;51.670;5.624;2023-09-12T00:18:24;101447.51;;;28.39;72.87
63194;BME280;49289;51.670;5.624;2023-09-12T00:20:12;101446.70;;;28.34;73.12
63194;BME280;49289;51.670;5.624;2023-09-12T00:21:59;101450.91;;;28.42;72.80
63194;BME280;49289;51.670;5.624;2023-09-12T00:23:46;101449.92;;;28.40;73.37
63194;BME280;49289;51.670;5.624;2023-09-12T00:25:33;101444.05;;;28.39;73.08
63194;BME280;49289;51.670;5.624;2023-09-12T00:27:21;101443.52;;;28.37;72.72
63194;BME280;49289;51.670;5.624;2023-09-12T00:29:10;101443.89;;;28.32;72.73
63194;BME280;49289;51.670;5.624;2023-09-12T00:30:59;101421.28;;;28.27;72.28
63194;BME280;49289;51.670;5.624;2023-09-12T00:32:47;101441.09;;;28.32;72.33
63194;BME280;49289;51.670;5.624;2023-09-12T00:34:35;101442.95;;;28.36;72.00
63194;BME280;49289;51.670;5.624;2023-09-12T00:36:23;101420.83;;;28.12;72.29
63194;BME280;49289;51.670;5.624;2023-09-12T00:38:10;101447.98;;;28.25;72.21
63194;BME280;49289;51.670;5.624;2023-09-12T00:39:57;101441.68;;;28.19;72.14
63194;BME280;49289;51.670;5.624;2023-09-12T00:41:44;101451.98;;;28.24;72.27
63194;BME280;49289;51.670;5.624;2023-09-12T00:43:31;101445.09;;;28.17;72.27
63194;BME280;49289;51.670;5.624;2023-09-12T00:45:20;101443.78;;;28.12;72.38
63194;BME280;49289;51.670;5.624;2023-09-12T00:47:07;101443.63;;;28.11;72.32
63194;BME280;49289;51.670;5.624;2023-09-12T00:48:54;101436.08;;;28.13;72.26
63194;BME280;49289;51.670;5.624;2023-09-12T00:50:41;101426.85;;;28.07;71.70
63194;BME280;49289;51.670;5.624;2023-09-12T00:52:30;101433.86;;;28.17;71.50
63194;BME280;49289;51.670;5.624;2023-09-12T00:54:17;101427.64;;;28.06;71.64
63194;BME280;49289;51.670;5.624;2023-09-12T00:56:04;101427.81;;;28.06;71.65
63194;BME280;49289;51.670;5.624;2023-09-12T00:57:51;101424.06;;;28.07;71.57
63194;BME280;49289;51.670;5.624;2023-09-12T00:59:40;101409.19;;;27.96;71.30
63194;BME280;49289;51.670;5.624;2023-09-12T01:01:28;101423.41;;;28.10;71.43
63194;BME280;49289;51.670;5.624;2023-09-12T01:03:16;101420.36;;;28.02;71.68
63194;BME280;49289;51.670;5.624;2023-09-12T01:05:03;101417.80;;;27.99;71.71
63194;BME280;49289;51.670;5.624;2023-09-12T01:06:52;101396.63;;;27.84;71.91
63194;BME280;49289;51.670;5.624;2023-09-12T01:08:40;101415.43;;;27.99;71.85
63194;BME280;49289;51.670;5.624;2023-09-12T01:10:27;101420.10;;;27.94;72.06
63194;BME280;49289;51.670;5.624;2023-09-12T01:12:16;101419.61;;;27.90;72.52
63194;BME280;49289;51.670;5.624;2023-09-12T01:14:04;101408.97;;;27.91;72.73
63194;BME280;49289;51.670;5.624;2023-09-12T01:15:51;101408.81;;;27.97;72.58
63194;BME280;49289;51.670;5.624;2023-09-12T01:17:38;101408.46;;;27.91;72.48
63194;BME280;49289;51.670;5.624;2023-09-12T01:19:25;101406.56;;;27.89;72.71
63194;BME280;49289;51.670;5.624;2023-09-12T01:21:36;101404.69;;;28.01;72.40
63194;BME280;49289;51.670;5.624;2023-09-12T01:23:32;101382.63;;;27.82;72.47
63194;BME280;49289;51.670;5.624;2023-09-12T01:27:29;101392.37;;;28.01;72.06
63194;BME280;49289;51.670;5.624;2023-09-12T01:29:15;101393.42;;;27.99;71.82
63194;BME280;49289;51.670;5.624;2023-09-12T01:31:02;101392.08;;;27.99;71.32
63194;BME280;49289;51.670;5.624;2023-09-12T01:32:49;101403.04;;;27.88;71.70
63194;BME280;49289;51.670;5.624;2023-09-12T01:34:36;101383.52;;;27.69;71.76
63194;BME280;49289;51.670;5.624;2023-09-12T01:36:24;101408.61;;;27.84;71.67
63194;BME280;49289;51.670;5.624;2023-09-12T01:38:12;101415.41;;;27.80;71.80
63194;BME280;49289;51.670;5.624;2023-09-12T01:40:01;101413.49;;;27.79;71.78
63194;BME280;49289;51.670;5.624;2023-09-12T01:41:49;101409.11;;;27.79;71.46
63194;BME280;49289;51.670;5.624;2023-09-12T01:43:37;101404.66;;;27.74;71.65
63194;BME280;49289;51.670;5.624;2023-09-12T01:45:24;101406.00;;;27.67;71.72
63194;BME280;49289;51.670;5.624;2023-09-12T01:47:12;101402.55;;;27.70;71.71
63194;BME280;49289;51.670;5.624;2023-09-12T01:49:00;101403.52;;;27.65;71.79
63194;BME280;49289;51.670;5.624;2023-09-12T01:50:48;101377.69;;;27.55;71.64
63194;BME280;49289;51.670;5.624;2023-09-12T01:52:36;101402.72;;;27.67;71.79
63194;BME280;49289;51.670;5.624;2023-09-12T01:54:23;101404.38;;;27.64;71.75
63194;BME280;49289;51.670;5.624;2023-09-12T01:56:11;101402.45;;;27.61;71.98
63194;BME280;49289;51.670;5.624;2023-09-12T01:58:00;101398.61;;;27.58;72.17
63194;BME280;49289;51.670;5.624;2023-09-12T01:59:48;101399.52;;;27.52;72.28
63194;BME280;49289;51.670;5.624;2023-09-12T02:01:36;101402.80;;;27.52;72.21
63194;BME280;49289;51.670;5.624;2023-09-12T02:03:24;101398.06;;;27.45;72.43
63194;BME280;49289;51.670;5.624;2023-09-12T02:05:13;101393.78;;;27.44;72.72
63194;BME280;49289;51.670;5.624;2023-09-12T02:07:01;101393.43;;;27.53;72.74
63194;BME280;49289;51.670;5.624;2023-09-12T02:08:48;101392.73;;;27.54;72.29
63194;BME280;49289;51.670;5.624;2023-09-12T02:10:37;101373.08;;;27.41;72.13
63194;BME280;49289;51.670;5.624;2023-09-12T02:12:25;101394.64;;;27.47;72.42
63194;BME280;49289;51.670;5.624;2023-09-12T02:14:12;101400.86;;;27.52;72.48
63194;BME280;49289;51.670;5.624;2023-09-12T02:16:04;101401.93;;;27.53;72.19
63194;BME280;49289;51.670;5.624;2023-09-12T02:17:53;101399.45;;;27.55;72.15
63194;BME280;49289;51.670;5.624;2023-09-12T02:19:41;101382.69;;;27.37;71.90
63194;BME280;49289;51.670;5.624;2023-09-12T02:21:29;101400.98;;;27.46;72.37
63194;BME280;49289;51.670;5.624;2023-09-12T02:23:17;101396.63;;;27.45;72.75
63194;BME280;49289;51.670;5.624;2023-09-12T02:25:05;101393.48;;;27.46;72.90
63194;BME280;49289;51.670;5.624;2023-09-12T02:26:51;101394.30;;;27.52;72.34
63194;BME280;49289;51.670;5.624;2023-09-12T02:28:38;101398.78;;;27.47;72.50
63194;BME280;49289;51.670;5.624;2023-09-12T02:30:25;101403.89;;;27.45;72.98
63194;BME280;49289;51.670;5.624;2023-09-12T02:32:12;101406.05;;;26.83;73.57
63194;BME280;49289;51.670;5.624;2023-09-12T02:34:01;101407.39;;;26.51;77.05
63194;BME280;49289;51.670;5.624;2023-09-12T02:35:49;101410.67;;;26.56;76.21
63194;BME280;49289;51.670;5.624;2023-09-12T02:37:37;101417.33;;;26.68;76.44
63194;BME280;49289;51.670;5.624;2023-09-12T02:39:24;101398.08;;;26.80;75.78
63194;BME280;49289;51.670;5.624;2023-09-12T02:41:11;101399.76;;;27.03;74.70
63194;BME280;49289;51.670;5.624;2023-09-12T02:42:58;101400.71;;;27.15;73.77
63194;BME280;49289;51.670;5.624;2023-09-12T02:44:45;101424.50;;;26.97;74.13
63194;BME280;49289;51.670;5.624;2023-09-12T02:46:34;101400.60;;;27.08;73.66
63194;BME280;49289;51.670;5.624;2023-09-12T02:48:22;101416.17;;;27.27;72.91
63194;BME280;49289;51.670;5.624;2023-09-12T02:50:14;101418.52;;;27.32;72.32
63194;BME280;49289;51.670;5.624;2023-09-12T02:52:01;101401.12;;;27.15;71.93
63194;BME280;49289;51.670;5.624;2023-09-12T02:53:48;101419.70;;;27.28;71.93
63194;BME280;49289;51.670;5.624;2023-09-12T02:55:38;101422.28;;;27.34;71.93
63194;BME280;49289;51.670;5.624;2023-09-12T02:57:23;101419.47;;;27.35;72.14
63194;BME280;49289;51.670;5.624;2023-09-12T02:59:11;101419.64;;;27.35;72.01
63194;BME280;49289;51.670;5.624;2023-09-12T03:01:00;101393.20;;;27.15;72.17
63194;BME280;49289;51.670;5.624;2023-09-12T03:02:48;101389.76;;;27.15;71.98
63194;BME280;49289;51.670;5.624;2023-09-12T03:04:36;101415.95;;;27.26;71.91
63194;BME280;49289;51.670;5.624;2023-09-12T03:06:23;101394.16;;;27.28;71.21
63194;BME280;49289;51.670;5.624;2023-09-12T03:08:12;101415.72;;;27.37;71.41
63194;BME280;49289;51.670;5.624;2023-09-12T03:10:00;101417.16;;;27.33;71.20
63194;BME280;49289;51.670;5.624;2023-09-12T03:11:47;101415.08;;;27.27;71.03
63194;BME280;49289;51.670;5.624;2023-09-12T03:13:35;101391.66;;;27.13;71.09
63194;BME280;49289;51.670;5.624;2023-09-12T03:15:23;101413.10;;;27.25;71.05
63194;BME280;49289;51.670;5.624;2023-09-12T03:17:11;101415.08;;;27.22;70.84
63194;BME280;49289;51.670;5.624;2023-09-12T03:18:59;101413.37;;;27.13;71.29
63194;BME280;49289;51.670;5.624;2023-09-12T03:20:46;101394.91;;;27.00;71.27
63194;BME280;49289;51.670;5.624;2023-09-12T03:22:33;101420.59;;;27.11;71.08
63194;BME280;49289;51.670;5.624;2023-09-12T03:24:20;101420.26;;;27.11;70.81
63194;BME280;49289;51.670;5.624;2023-09-12T03:26:12;101418.22;;;27.01;71.13
63194;BME280;49289;51.670;5.624;2023-09-12T03:27:59;101415.73;;;27.05;70.57
63194;BME280;49289;51.670;5.624;2023-09-12T03:29:47;101387.56;;;26.86;70.69
63194;BME280;49289;51.670;5.624;2023-09-12T03:31:35;101382.86;;;26.85;70.47
63194;BME280;49289;51.670;5.624;2023-09-12T03:33:23;101402.19;;;26.92;70.44
63194;BME280;49289;51.670;5.624;2023-09-12T03:35:11;101377.58;;;26.77;70.24
63194;BME280;49289;51.670;5.624;2023-09-12T03:36:58;101391.89;;;26.82;70.33
63194;BME280;49289;51.670;5.624;2023-09-12T03:38:47;101393.14;;;26.82;70.23
63194;BME280;49289;51.670;5.624;2023-09-12T03:40:34;101391.19;;;26.75;70.25
63194;BME280;49289;51.670;5.624;2023-09-12T03:42:21;101377.20;;;26.59;69.85
63194;BME280;49289;51.670;5.624;2023-09-12T03:44:10;101399.80;;;26.69;70.72
63194;BME280;49289;51.670;5.624;2023-09-12T03:45:57;101396.80;;;26.60;70.37
63194;BME280;49289;51.670;5.624;2023-09-12T03:47:44;101395.32;;;26.63;70.71
63194;BME280;49289;51.670;5.624;2023-09-12T03:49:33;101390.04;;;26.57;70.76
63194;BME280;49289;51.670;5.624;2023-09-12T03:51:21;101384.81;;;26.47;71.34
63194;BME280;49289;51.670;5.624;2023-09-12T03:53:09;101388.28;;;26.61;70.77
63194;BME280;49289;51.670;5.624;2023-09-12T03:54:57;101383.38;;;26.62;70.19
63194;BME280;49289;51.670;5.624;2023-09-12T03:56:44;101379.46;;;26.55;70.32
63194;BME280;49289;51.670;5.624;2023-09-12T03:58:31;101376.91;;;26.61;69.99
63194;BME280;49289;51.670;5.624;2023-09-12T04:00:21;101375.91;;;26.61;69.77
63194;BME280;49289;51.670;5.624;2023-09-12T04:02:08;101356.86;;;26.43;70.01
63194;BME280;49289;51.670;5.624;2023-09-12T04:03:55;101380.58;;;26.49;70.31
63194;BME280;49289;51.670;5.624;2023-09-12T04:05:42;101376.77;;;26.50;70.24
63194;BME280;49289;51.670;5.624;2023-09-12T04:07:30;101357.44;;;26.41;69.86
63194;BME280;49289;51.670;5.624;2023-09-12T04:09:18;101386.15;;;26.48;69.92
63194;BME280;49289;51.670;5.624;2023-09-12T04:11:06;101384.02;;;26.43;70.20
63194;BME280;49289;51.670;5.624;2023-09-12T04:12:53;101386.95;;;26.38;70.20
63194;BME280;49289;51.670;5.624;2023-09-12T04:14:40;101388.88;;;26.46;70.12
63194;BME280;49289;51.670;5.624;2023-09-12T04:16:27;101387.39;;;26.44;70.63
63194;BME280;49289;51.670;5.624;2023-09-12T04:18:16;101382.36;;;26.48;70.75
63194;BME280;49289;51.670;5.624;2023-09-12T04:20:03;101379.03;;;26.51;71.20
63194;BME280;49289;51.670;5.624;2023-09-12T04:21:50;101351.13;;;26.37;71.36
63194;BME280;49289;51.670;5.624;2023-09-12T04:23:37;101373.09;;;26.58;71.11
63194;BME280;49289;51.670;5.624;2023-09-12T04:25:24;101369.91;;;26.57;70.87
63194;BME280;49289;51.670;5.624;2023-09-12T04:27:11;101360.14;;;26.52;70.78
63194;BME280;49289;51.670;5.624;2023-09-12T04:28:59;101375.80;;;26.64;70.77
63194;BME280;49289;51.670;5.624;2023-09-12T04:30:48;101374.60;;;26.58;71.31
63194;BME280;49289;51.670;5.624;2023-09-12T04:32:36;101374.99;;;26.60;71.35
63194;BME280;49289;51.670;5.624;2023-09-12T04:34:23;101375.52;;;26.66;71.30
63194;BME280;49289;51.670;5.624;2023-09-12T04:36:12;101357.54;;;26.52;71.21
63194;BME280;49289;51.670;5.624;2023-09-12T04:37:59;101359.54;;;26.64;71.13
63194;BME280;49289;51.670;5.624;2023-09-12T04:39:48;101381.69;;;26.82;70.61
63194;BME280;49289;51.670;5.624;2023-09-12T04:43:23;101383.05;;;26.78;70.77
63194;BME280;49289;51.670;5.624;2023-09-12T04:45:11;101386.69;;;26.76;70.97
63194;BME280;49289;51.670;5.624;2023-09-12T04:47:00;101368.33;;;26.76;70.67
63194;BME280;49289;51.670;5.624;2023-09-12T04:48:47;101391.95;;;26.83;70.92
63194;BME280;49289;51.670;5.624;2023-09-12T04:50:34;101391.94;;;26.79;70.90
63194;BME280;49289;51.670;5.624;2023-09-12T04:52:21;101391.92;;;26.91;70.60
63194;BME280;49289;51.670;5.624;2023-09-12T04:54:10;101392.52;;;26.95;70.34
63194;BME280;49289;51.670;5.624;2023-09-12T04:55:58;101393.70;;;26.91;70.37
63194;BME280;49289;51.670;5.624;2023-09-12T04:57:46;101392.63;;;26.90;70.21
63194;BME280;49289;51.670;5.624;2023-09-12T04:59:34;101392.47;;;26.82;70.61
63194;BME280;49289;51.670;5.624;2023-09-12T05:01:21;101397.13;;;26.87;70.07
63194;BME280;49289;51.670;5.624;2023-09-12T05:03:09;101375.70;;;26.74;70.54
63194;BME280;49289;51.670;5.624;2023-09-12T05:04:57;101393.40;;;26.84;70.74
63194;BME280;49289;51.670;5.624;2023-09-12T05:06:44;101390.79;;;26.84;70.97
63194;BME280;49289;51.670;5.624;2023-09-12T05:08:31;101375.59;;;26.55;70.77
63194;BME280;49289;51.670;5.624;2023-09-12T05:10:19;101398.50;;;26.24;73.39
63194;BME280;49289;51.670;5.624;2023-09-12T05:12:06;101404.38;;;25.93;74.74
63194;BME280;49289;51.670;5.624;2023-09-12T05:13:53;101383.82;;;25.96;74.99
63194;BME280;49289;51.670;5.624;2023-09-12T05:15:41;101410.47;;;26.43;74.30
63194;BME280;49289;51.670;5.624;2023-09-12T05:17:27;101407.31;;;26.38;73.57
63194;BME280;49289;51.670;5.624;2023-09-12T05:19:14;101409.92;;;26.60;73.07
63194;BME280;49289;51.670;5.624;2023-09-12T05:21:03;101390.52;;;26.64;72.19
63194;BME280;49289;51.670;5.624;2023-09-12T05:22:51;101410.39;;;26.79;71.84
63194;BME280;49289;51.670;5.624;2023-09-12T05:24:39;101411.18;;;26.77;71.94
63194;BME280;49289;51.670;5.624;2023-09-12T05:26:27;101379.91;;;26.63;71.57
63194;BME280;49289;51.670;5.624;2023-09-12T05:28:15;101406.21;;;26.73;71.67
63194;BME280;49289;51.670;5.624;2023-09-12T05:30:03;101412.66;;;26.86;71.42
63194;BME280;49289;51.670;5.624;2023-09-12T05:31:52;101410.86;;;26.87;71.39
63194;BME280;49289;51.670;5.624;2023-09-12T05:33:40;101403.09;;;26.82;71.40
63194;BME280;49289;51.670;5.624;2023-09-12T05:35:27;101410.67;;;26.88;71.28
63194;BME280;49289;51.670;5.624;2023-09-12T05:37:16;101411.12;;;26.87;71.23
63194;BME280;49289;51.670;5.624;2023-09-12T05:39:04;101412.45;;;26.97;70.77
63194;BME280;49289;51.670;5.624;2023-09-12T05:40:51;101412.56;;;26.91;70.77
63194;BME280;49289;51.670;5.624;2023-09-12T05:42:38;101408.75;;;26.88;70.65
63194;BME280;49289;51.670;5.624;2023-09-12T05:44:25;101380.38;;;26.76;70.51
63194;BME280;49289;51.670;5.624;2023-09-12T05:46:14;101377.66;;;26.82;70.24
63194;BME280;49289;51.670;5.624;2023-09-12T05:48:12;101385.75;;;26.83;70.32
63194;BME280;49289;51.670;5.624;2023-09-12T05:50:00;101406.77;;;26.90;70.39
63194;BME280;49289;51.670;5.624;2023-09-12T05:51:48;101407.16;;;27.02;70.38
63194;BME280;49289;51.670;5.624;2023-09-12T05:53:35;101409.48;;;26.94;70.36
63194;BME280;49289;51.670;5.624;2023-09-12T05:55:22;101408.63;;;27.00;70.31
63194;BME280;49289;51.670;5.624;2023-09-12T05:57:09;101413.23;;;27.08;70.43
63194;BME280;49289;51.670;5.624;2023-09-12T05:58:57;101383.59;;;26.99;70.02
63194;BME280;49289;51.670;5.624;2023-09-12T06:00:46;101406.09;;;27.16;69.77
63194;BME280;49289;51.670;5.624;2023-09-12T06:02:33;101403.47;;;27.03;70.17
63194;BME280;49289;51.670;5.624;2023-09-12T06:04:21;101407.25;;;27.02;70.19
63194;BME280;49289;51.670;5.624;2023-09-12T06:06:09;101403.80;;;27.08;70.20
63194;BME280;49289;51.670;5.624;2023-09-12T06:07:57;101397.94;;;27.10;69.94
63194;BME280;49289;51.670;5.624;2023-09-12T06:09:44;101402.81;;;27.11;70.00
63194;BME280;49289;51.670;5.624;2023-09-12T06:11:31;101407.33;;;27.02;69.98
63194;BME280;49289;51.670;5.624;2023-09-12T06:13:18;101404.48;;;27.08;69.71
63194;BME280;49289;51.670;5.624;2023-09-12T06:15:05;101401.82;;;27.10;69.80
63194;BME280;49289;51.670;5.624;2023-09-12T06:16:53;101404.23;;;27.02;69.62
63194;BME280;49289;51.670;5.624;2023-09-12T06:18:41;101381.00;;;26.98;69.24
63194;BME280;49289;51.670;5.624;2023-09-12T06:20:30;101411.91;;;27.16;69.43
63194;BME280;49289;51.670;5.624;2023-09-12T06:22:18;101414.78;;;27.15;69.26
63194;BME280;49289;51.670;5.624;2023-09-12T06:24:20;101416.45;;;27.11;69.68
63194;BME280;49289;51.670;5.624;2023-09-12T06:26:06;101417.42;;;27.13;70.30
63194;BME280;49289;51.670;5.624;2023-09-12T06:27:54;101391.70;;;26.98;70.52
63194;BME280;49289;51.670;5.624;2023-09-12T06:29:41;101418.06;;;27.11;70.34
63194;BME280;49289;51.670;5.624;2023-09-12T06:31:28;101414.23;;;27.17;70.13
63194;BME280;49289;51.670;5.624;2023-09-12T06:33:16;101399.91;;;26.96;70.29
63194;BME280;49289;51.670;5.624;2023-09-12T06:35:05;101415.95;;;27.15;70.19
63194;BME280;49289;51.670;5.624;2023-09-12T06:36:52;101421.88;;;27.05;70.62
63194;BME280;49289;51.670;5.624;2023-09-12T06:38:39;101423.52;;;27.12;70.36
63194;BME280;49289;51.670;5.624;2023-09-12T06:40:26;101424.54;;;27.16;70.50
63194;BME280;49289;51.670;5.624;2023-09-12T06:42:14;101424.27;;;27.17;70.56
63194;BME280;49289;51.670;5.624;2023-09-12T06:44:02;101425.91;;;27.19;70.71
63194;BME280;49289;51.670;5.624;2023-09-12T06:45:50;101423.52;;;27.08;70.73
63194;BME280;49289;51.670;5.624;2023-09-12T06:48:25;101418.00;;;27.23;70.64
63194;BME280;49289;51.670;5.624;2023-09-12T06:50:13;101423.03;;;27.20;70.86
63194;BME280;49289;51.670;5.624;2023-09-12T06:52:00;101418.71;;;27.21;70.77
63194;BME280;49289;51.670;5.624;2023-09-12T06:53:47;101422.41;;;27.23;70.20
63194;BME280;49289;51.670;5.624;2023-09-12T06:55:34;101420.23;;;27.16;70.53
63194;BME280;49289;51.670;5.624;2023-09-12T06:57:21;101406.37;;;27.09;70.39
63194;BME280;49289;51.670;5.624;2023-09-12T06:59:09;101429.13;;;27.18;70.02
63194;BME280;49289;51.670;5.624;2023-09-12T07:01:00;101400.97;;;27.00;70.24
63194;BME280;49289;51.670;5.624;2023-09-12T07:02:46;101429.86;;;27.26;69.84
63194;BME280;49289;51.670;5.624;2023-09-12T07:04:35;101413.88;;;27.18;69.60
63194;BME280;49289;51.670;5.624;2023-09-12T07:06:23;101436.55;;;27.33;69.81
63194;BME280;49289;51.670;5.624;2023-09-12T07:08:11;101440.23;;;27.38;69.78
63194;BME280;49289;51.670;5.624;2023-09-12T07:09:58;101442.42;;;27.44;69.68
63194;BME280;49289;51.670;5.624;2023-09-12T07:11:47;101418.30;;;27.35;69.66
63194;BME280;49289;51.670;5.624;2023-09-12T07:13:35;101437.12;;;27.48;69.64
63194;BME280;49289;51.670;5.624;2023-09-12T07:15:23;101434.81;;;27.49;69.56
63194;BME280;49289;51.670;5.624;2023-09-12T07:17:10;101436.95;;;27.52;69.51
63194;BME280;49289;51.670;5.624;2023-09-12T07:18:59;101438.85;;;27.58;69.30
63194;BME280;49289;51.670;5.624;2023-09-12T07:20:47;101442.39;;;27.54;69.30
63194;BME280;49289;51.670;5.624;2023-09-12T07:22:35;101443.50;;;27.57;69.01
63194;BME280;49289;51.670;5.624;2023-09-12T07:24:22;101440.27;;;27.58;68.92
63194;BME280;49289;51.670;5.624;2023-09-12T07:26:11;101441.32;;;27.61;68.98
63194;BME280;49289;51.670;5.624;2023-09-12T07:27:56;101441.20;;;27.59;68.72
63194;BME280;49289;51.670;5.624;2023-09-12T07:29:43;101442.83;;;27.68;68.92
63194;BME280;49289;51.670;5.624;2023-09-12T07:31:31;101430.33;;;27.58;68.98
63194;BME280;49289;51.670;5.624;2023-09-12T07:33:20;101433.02;;;27.66;68.89
63194;BME280;49289;51.670;5.624;2023-09-12T07:35:08;101450.02;;;27.83;69.03
63194;BME280;49289;51.670;5.624;2023-09-12T07:36:55;101449.70;;;27.95;68.79
63194;BME280;49289;51.670;5.624;2023-09-12T07:38:42;101445.73;;;27.99;68.91
63194;BME280;49289;51.670;5.624;2023-09-12T07:40:29;101443.29;;;28.04;68.83
63194;BME280;49289;51.670;5.624;2023-09-12T07:42:18;101439.13;;;28.12;68.61
63194;BME280;49289;51.670;5.624;2023-09-12T07:44:06;101445.73;;;28.19;67.95
63194;BME280;49289;51.670;5.624;2023-09-12T07:45:54;101447.89;;;28.20;68.01
63194;BME280;49289;51.670;5.624;2023-09-12T07:47:41;101447.36;;;28.21;67.85
63194;BME280;49289;51.670;5.624;2023-09-12T07:49:28;101452.10;;;28.01;66.79
63194;BME280;49289;51.670;5.624;2023-09-12T07:51:24;101453.50;;;27.46;69.20
63194;BME280;49289;51.670;5.624;2023-09-12T07:53:10;101456.91;;;27.86;68.92
63194;BME280;49289;51.670;5.624;2023-09-12T07:54:57;101455.55;;;27.11;69.13
63194;BME280;49289;51.670;5.624;2023-09-12T07:56:45;101458.64;;;27.23;70.08
63194;BME280;49289;51.670;5.624;2023-09-12T07:58:32;101463.05;;;27.73;68.93
63194;BME280;49289;51.670;5.624;2023-09-12T08:00:21;101461.45;;;27.94;68.39
63194;BME280;49289;51.670;5.624;2023-09-12T08:02:09;101381.70;;;27.61;68.54
63194;BME280;49289;51.670;5.624;2023-09-12T08:03:57;101454.12;;;28.01;68.06
63194;BME280;49289;51.670;5.624;2023-09-12T08:05:44;101447.91;;;28.20;67.87
63194;BME280;49289;51.670;5.624;2023-09-12T08:07:31;101438.36;;;28.33;67.49
63194;BME280;49289;51.670;5.624;2023-09-12T08:09:19;101441.83;;;28.29;67.52
63194;BME280;49289;51.670;5.624;2023-09-12T08:11:07;101442.72;;;28.38;68.08
63194;BME280;49289;51.670;5.624;2023-09-12T08:12:56;101419.22;;;28.15;66.71
63194;BME280;49289;51.670;5.624;2023-09-12T08:14:44;101436.85;;;28.24;67.94
63194;BME280;49289;51.670;5.624;2023-09-12T08:16:32;101436.70;;;28.36;66.46
63194;BME280;49289;51.670;5.624;2023-09-12T08:18:19;101438.33;;;28.35;66.71
63194;BME280;49289;51.670;5.624;2023-09-12T08:20:06;101439.78;;;28.52;66.94
63194;BME280;49289;51.670;5.624;2023-09-12T08:21:54;101424.22;;;28.47;66.16
63194;BME280;49289;51.670;5.624;2023-09-12T08:23:42;101442.45;;;28.18;64.49
63194;BME280;49289;51.670;5.624;2023-09-12T08:25:31;101432.56;;;27.92;65.77
63194;BME280;49289;51.670;5.624;2023-09-12T08:27:19;101453.73;;;28.23;65.29
63194;BME280;49289;51.670;5.624;2023-09-12T08:29:07;101436.86;;;28.25;65.30
63194;BME280;49289;51.670;5.624;2023-09-12T08:30:56;101461.06;;;27.75;65.65
63194;BME280;49289;51.670;5.624;2023-09-12T08:32:44;101463.31;;;27.98;65.99
63194;BME280;49289;51.670;5.624;2023-09-12T08:34:32;101466.20;;;27.88;66.53
63194;BME280;49289;51.670;5.624;2023-09-12T08:36:19;101466.99;;;27.27;68.30
63194;BME280;49289;51.670;5.624;2023-09-12T08:38:08;101471.49;;;27.43;68.37
63194;BME280;49289;51.670;5.624;2023-09-12T08:39:56;101479.41;;;26.81;71.28
63194;BME280;49289;51.670;5.624;2023-09-12T08:41:44;101474.03;;;26.87;72.42
63194;BME280;49289;51.670;5.624;2023-09-12T08:43:32;101475.61;;;26.72;72.20
63194;BME280;49289;51.670;5.624;2023-09-12T08:45:20;101472.53;;;27.71;69.74
63194;BME280;49289;51.670;5.624;2023-09-12T08:47:58;101467.91;;;28.26;66.78
63194;BME280;49289;51.670;5.624;2023-09-12T08:49:45;101482.05;;;27.76;68.67
63194;BME280;49289;51.670;5.624;2023-09-12T08:51:33;101478.38;;;27.99;68.37
63194;BME280;49289;51.670;5.624;2023-09-12T08:53:20;101487.52;;;27.42;70.62
63194;BME280;49289;51.670;5.624;2023-09-12T08:54:52;101486.88;;;26.94;71.10
63194;BME280;49289;51.670;5.624;2023-09-12T08:56:40;101468.06;;;27.67;70.83
63194;BME280;49289;51.670;5.624;2023-09-12T08:58:28;101488.77;;;28.23;68.12
63194;BME280;49289;51.670;5.624;2023-09-12T09:00:17;101491.85;;;27.32;72.11
63194;BME280;49289;51.670;5.624;2023-09-12T09:02:05;101489.52;;;28.33;69.89
63194;BME280;49289;51.670;5.624;2023-09-12T09:03:52;101491.02;;;28.46;66.55
63194;BME280;49289;51.670;5.624;2023-09-12T09:05:41;101479.23;;;28.71;65.52
63194;BME280;49289;51.670;5.624;2023-09-12T09:07:29;101493.07;;;28.81;64.50
63194;BME280;49289;51.670;5.624;2023-09-12T09:09:17;101474.88;;;28.69;64.23
63194;BME280;49289;51.670;5.624;2023-09-12T09:11:08;101473.06;;;28.62;65.41
63194;BME280;49289;51.670;5.624;2023-09-12T09:12:58;101498.58;;;27.68;66.30
63194;BME280;49289;51.670;5.624;2023-09-12T09:14:45;101501.74;;;28.30;67.25
63194;BME280;49289;51.670;5.624;2023-09-12T09:16:32;101479.59;;;28.10;67.03
63194;BME280;49289;51.670;5.624;2023-09-12T09:18:19;101500.99;;;28.37;66.58
63194;BME280;49289;51.670;5.624;2023-09-12T09:20:06;101484.32;;;28.18;67.00
63194;BME280;49289;51.670;5.624;2023-09-12T09:21:53;101485.78;;;27.67;67.97
63194;BME280;49289;51.670;5.624;2023-09-12T09:23:43;101503.27;;;28.16;67.64
63194;BME280;49289;51.670;5.624;2023-09-12T09:25:30;101502.66;;;28.38;66.31
63194;BME280;49289;51.670;5.624;2023-09-12T09:27:19;101500.78;;;28.63;65.21
63194;BME280;49289;51.670;5.624;2023-09-12T09:29:16;101500.58;;;28.41;64.26